M I D A S
Marine Information and Data Acquisition System
Tripno 524 of the Zeeleeuw from 2003-06-25 06:54:58 to 2003-06-25 11:03:42
Back to CruiseResearch ActivitiesStationsMapUnderway DataData graphs

EquipmentUnitsComment
TimeDGPSUTC
LatitudeDGPSDM.mWGS84
LongitudeDGPSDM.mWGS84
HeadingGyrodeg 
SOGDGPSknotsSpeed over ground
COGDGPSdegCourse over ground
DepthEcho soundermeters200 kHz
Missing or incorrect values are displayed as -999
Navigation data collected by the RV Zeeleeuw from 2003-06-25 06:54:58 to 2003-06-25 11:03:42
Time Latitude Longitude Heading SOG COG Depth
2003-06-25 06:56:04 51°13.62 2°56.05 116 2.7 295 -999
2003-06-25 06:57:06 51°13.64 2°55.97 113.8 3.8 291 -999
2003-06-25 06:58:06 51°13.66 2°55.86 112 4.4 291 -999
2003-06-25 06:59:02 51°13.68 2°55.78 103.6 2.3 287 11.6
2003-06-25 07:00:04 51°13.68 2°55.75 82.7 0.6 287 -999
2003-06-25 07:01:02 51°13.71 2°55.76 16.2 3.1 7 13.7
2003-06-25 07:02:02 51°13.77 2°55.7 322 5 319 11.3
2003-06-25 07:03:00 51°13.84 2°55.62 337.4 5 333 11.4
2003-06-25 07:04:02 51°13.91 2°55.57 339.4 5.2 335 12
2003-06-25 07:05:02 51°14 2°55.51 339.4 5.9 336 11.8
2003-06-25 07:06:00 51°14.09 2°55.44 340.4 7.1 336 11.9
2003-06-25 07:07:02 51°14.2 2°55.34 328.1 7.2 324 12
2003-06-25 07:08:02 51°14.3 2°55.19 313.2 9.1 309 11.8
2003-06-25 07:09:02 51°14.41 2°54.99 318.9 10.7 318 11.2
2003-06-25 07:10:02 51°14.57 2°54.82 330.2 12 328 10.8
2003-06-25 07:11:02 51°14.74 2°54.64 329.7 12.6 327 10.2
2003-06-25 07:12:02 51°14.92 2°54.46 330.3 12.9 327 9.9
2003-06-25 07:13:02 51°15.1 2°54.27 330.2 13.4 327 9.4
2003-06-25 07:14:02 51°15.29 2°54.07 329.8 13.6 326 10.3
2003-06-25 07:15:02 51°15.48 2°53.87 330.2 14 326 11
2003-06-25 07:16:02 51°15.68 2°53.67 335.4 14.1 331 11.8
2003-06-25 07:17:00 51°15.88 2°53.51 340.9 14.1 337 12.6
2003-06-25 07:18:02 51°16.1 2°53.35 340.5 14 336 12.9
2003-06-25 07:19:02 51°16.31 2°53.19 335.3 14.1 330 13.4
2003-06-25 07:20:02 51°16.52 2°53 335.4 14.1 330 12.8
2003-06-25 07:21:02 51°16.72 2°52.82 335.7 13.8 331 11.6
2003-06-25 07:22:00 51°16.91 2°52.65 335.2 13.6 331 10.9
2003-06-25 07:23:02 51°17.12 2°52.47 335.3 13.7 331 10.9
2003-06-25 07:24:02 51°17.32 2°52.29 334.8 13.7 330 11.4
2003-06-25 07:25:00 51°17.48 2°52.07 309.8 13.5 305 11.4
2003-06-25 07:26:02 51°17.62 2°51.77 308.6 13.6 305 11.1
2003-06-25 07:27:02 51°17.74 2°51.47 309.5 13.7 305 11.2
2003-06-25 07:28:02 51°17.88 2°51.18 309.7 13.8 306 11.8
2003-06-25 07:29:02 51°18.01 2°50.88 309.9 13.8 305 13.5
2003-06-25 07:30:02 51°18.14 2°50.59 310 13.7 306 14.4
2003-06-25 07:31:02 51°18.27 2°50.29 310.3 13.6 306 15.2
2003-06-25 07:32:02 51°18.41 2°50 310 13.7 306 15.3
2003-06-25 07:33:02 51°18.54 2°49.7 309.6 13.6 305 13.6
2003-06-25 07:34:02 51°18.67 2°49.42 310 13.6 306 11.9
2003-06-25 07:35:02 51°18.81 2°49.12 310 13.5 306 12.4
2003-06-25 07:36:00 51°18.94 2°48.84 310.2 13.6 306 14.5
2003-06-25 07:37:02 51°19.08 2°48.54 310.2 13.8 306 16.5
2003-06-25 07:38:02 51°19.21 2°48.24 310.5 13.9 307 19
2003-06-25 07:39:00 51°19.35 2°47.95 310 14 306 21.2
2003-06-25 07:40:02 51°19.49 2°47.63 310.4 14.2 306 22.7
2003-06-25 07:41:02 51°19.62 2°47.33 310 14.1 306 22.8
2003-06-25 07:42:02 51°19.76 2°47.03 310.6 14.1 307 22.1
2003-06-25 07:43:02 51°19.9 2°46.72 310.6 14.1 306 19.6
2003-06-25 07:44:02 51°20.04 2°46.42 307.4 13.7 302 16.8
2003-06-25 07:45:02 51°20.09 2°46.08 282.8 13.5 279 16.2
2003-06-25 07:46:02 51°20.13 2°45.72 283.6 13.6 280 17.4
2003-06-25 07:47:00 51°20.17 2°45.38 284.2 13.7 282 23.8
2003-06-25 07:48:02 51°20.22 2°45.01 284.5 13.8 281 25.1
2003-06-25 07:49:02 51°20.26 2°44.65 284.6 13.9 282 26.2
2003-06-25 07:50:02 51°20.31 2°44.29 285 13.9 282 28
2003-06-25 07:51:00 51°20.36 2°43.94 285.1 13.9 282 28.4
2003-06-25 07:52:02 51°20.41 2°43.56 284.8 14 283 28.2
2003-06-25 07:53:02 51°20.45 2°43.2 284.7 14 281 26.1
2003-06-25 07:54:02 51°20.48 2°42.83 278.3 13.8 275 22.1
2003-06-25 07:55:02 51°20.49 2°42.47 275.3 13.7 274 22.7
2003-06-25 07:56:02 51°20.5 2°42.1 274.6 13.5 270 20.2
2003-06-25 07:57:02 51°20.5 2°41.74 275 13.6 274 22.4
2003-06-25 07:58:00 51°20.51 2°41.39 275.5 13.7 273 22.3
2003-06-25 07:59:02 51°20.52 2°41.02 275.6 13.6 273 29.4
2003-06-25 08:00:02 51°20.53 2°40.66 275 13.7 272 28.7
2003-06-25 08:01:02 51°20.54 2°40.3 275.8 13.7 274 28.1
2003-06-25 08:02:02 51°20.52 2°39.94 248 13.2 244 28.6
2003-06-25 08:03:02 51°20.38 2°39.67 234.4 13.6 230 27.5
2003-06-25 08:04:02 51°20.24 2°39.39 235.1 13.6 232 27.4
2003-06-25 08:05:02 51°20.1 2°39.11 233.9 13.6 228 26.2
2003-06-25 08:06:02 51°19.96 2°38.82 235.2 13.5 232 25.8
2003-06-25 08:07:02 51°19.82 2°38.54 235.1 13.5 232 24.2
2003-06-25 08:08:02 51°19.68 2°38.26 236.6 13.5 234 24.2
2003-06-25 08:09:02 51°19.54 2°37.98 235.3 13.3 230 22.5
2003-06-25 08:10:02 51°19.4 2°37.71 236 13.3 231 22.3
2003-06-25 08:11:02 51°19.26 2°37.44 234.5 13.3 229 22.6
2003-06-25 08:12:02 51°19.12 2°37.17 235.2 13.1 229 21.1
2003-06-25 08:13:00 51°18.98 2°36.91 235.4 13.2 230 22.1
2003-06-25 08:14:02 51°18.84 2°36.63 235.2 13 231 22
2003-06-25 08:15:00 51°18.7 2°36.38 232.4 13.3 227 21.1
2003-06-25 08:16:02 51°18.5 2°36.25 179.6 13.2 172 21.8
2003-06-25 08:17:02 51°18.32 2°36.47 136.5 14.3 130 18.1
2003-06-25 08:18:02 51°18.16 2°36.76 135.1 14.6 130 19.6
2003-06-25 08:19:02 51°17.99 2°37.02 150 14.3 145 22.3
2003-06-25 08:20:02 51°17.78 2°37.02 213.2 13.1 208 24.6
2003-06-25 08:21:02 51°17.59 2°36.83 219.9 13 216 26
2003-06-25 08:22:00 51°17.42 2°36.64 219.8 13.3 214 26
2003-06-25 08:23:00 51°17.24 2°36.43 219.9 13.5 216 26.1
2003-06-25 08:24:04 51°17.05 2°36.21 221.1 13.3 218 26.7
2003-06-25 08:25:04 51°16.87 2°36 219.7 13 217 27.8
2003-06-25 08:26:04 51°16.69 2°35.79 220.1 13.1 217 28.3
2003-06-25 08:27:04 51°16.52 2°35.58 220.3 13.1 216 27.8
2003-06-25 08:28:04 51°16.34 2°35.37 220.5 13.4 217 27.6
2003-06-25 08:29:04 51°16.17 2°35.15 225.1 13.2 225 27.4
2003-06-25 08:30:04 51°16.01 2°34.91 227.7 13.2 225 27.4
2003-06-25 08:31:04 51°15.92 2°34.61 271.4 13.3 271 26.3
2003-06-25 08:32:04 51°16 2°34.28 299.6 13.3 297 17
2003-06-25 08:33:08 51°16.11 2°33.95 298.1 12.9 296 11.8
2003-06-25 08:34:08 51°16.21 2°33.65 303.3 12.9 301 10.8
2003-06-25 08:35:08 51°16.32 2°33.35 306 12.9 306 12.7
2003-06-25 08:36:08 51°16.44 2°33.06 299.2 13.2 298 25.2
2003-06-25 08:37:08 51°16.43 2°32.75 237.9 12.4 233 27.7
2003-06-25 08:38:08 51°16.28 2°32.51 228.3 12.8 221 27.7
2003-06-25 08:39:08 51°16.13 2°32.27 230.3 12.7 229 28
2003-06-25 08:40:08 51°15.98 2°32.02 230 13 226 27.7
2003-06-25 08:41:08 51°15.83 2°31.78 230.1 12.8 227 27.3
2003-06-25 08:42:08 51°15.68 2°31.53 230.8 12.6 228 24.7
2003-06-25 08:43:08 51°15.53 2°31.29 230.3 12.8 226 24.1
2003-06-25 08:44:08 51°15.38 2°31.04 231.4 12.9 227 21.7
2003-06-25 08:45:08 51°15.23 2°30.79 230.1 12.8 225 23.4
2003-06-25 08:46:08 51°15.08 2°30.55 230.4 12.8 227 23.7
2003-06-25 08:47:08 51°14.93 2°30.31 230.3 12.6 226 23.2
2003-06-25 08:48:08 51°14.78 2°30.06 230.3 12.9 225 22.4
2003-06-25 08:49:08 51°14.64 2°29.81 230.7 12.9 227 23.6
2003-06-25 08:50:08 51°14.49 2°29.56 230.1 12.9 228 23.9
2003-06-25 08:51:08 51°14.34 2°29.32 230 13 225 23.4
2003-06-25 08:52:08 51°14.19 2°29.07 229.4 13.2 225 23.4
2003-06-25 08:53:08 51°14.04 2°28.82 230.8 13 228 24.3
2003-06-25 08:54:08 51°13.89 2°28.57 230.6 13 227 24.9
2003-06-25 08:55:08 51°13.74 2°28.32 230.9 13.1 227 25.1
2003-06-25 08:56:08 51°13.6 2°28.07 229.7 12.9 225 25.1
2003-06-25 08:57:08 51°13.45 2°27.82 230.1 12.9 225 23.8
2003-06-25 08:58:08 51°13.3 2°27.57 230.8 12.7 227 25.3
2003-06-25 08:59:08 51°13.16 2°27.33 230.4 12.6 227 26
2003-06-25 09:00:08 51°13.01 2°27.08 230.4 12.7 227 26.2
2003-06-25 09:01:08 51°12.87 2°26.84 230.3 12.8 226 26.5
2003-06-25 09:02:08 51°12.69 2°26.68 205.1 12.8 200 26.8
2003-06-25 09:03:08 51°12.49 2°26.57 203.9 12.8 198 26.8
2003-06-25 09:04:08 51°12.28 2°26.47 204.6 12.6 199 25.5
2003-06-25 09:05:08 51°12.09 2°26.35 205.7 12.8 200 21.8
2003-06-25 09:06:08 51°11.89 2°26.23 206.5 12.9 202 19.6
2003-06-25 09:07:08 51°11.69 2°26.12 207.1 13 202 19.4
2003-06-25 09:08:08 51°11.51 2°25.98 190.8 12.3 182 15.5
2003-06-25 09:09:08 51°11.32 2°26.15 141.4 13.9 133 15.3
2003-06-25 09:10:08 51°11.21 2°26.48 105.9 14.3 99 19.6
2003-06-25 09:11:08 51°11.22 2°26.87 91.7 14.7 87 22.9
2003-06-25 09:12:08 51°11.23 2°27.26 91.6 14.7 87 24.4
2003-06-25 09:13:08 51°11.24 2°27.65 91.6 14.8 89 23.3
2003-06-25 09:14:08 51°11.25 2°28.04 92.1 14.8 88 23.3
2003-06-25 09:15:08 51°11.27 2°28.43 80.2 14.7 75 23.8
2003-06-25 09:16:08 51°11.38 2°28.77 57.4 14.9 54 24.9
2003-06-25 09:17:08 51°11.53 2°29.09 58.4 15 55 25.8
2003-06-25 09:18:08 51°11.67 2°29.42 58.9 15 55 25.5
2003-06-25 09:19:08 51°11.81 2°29.75 59.5 15 56 24.4
2003-06-25 09:20:08 51°11.95 2°30.07 54.1 14.8 51 24.3
2003-06-25 09:21:08 51°12.11 2°30.37 55.1 14.7 51 24.1
2003-06-25 09:22:08 51°12.26 2°30.68 54.8 14.7 51 24
2003-06-25 09:23:08 51°12.41 2°30.98 54.9 14.7 51 23.8
2003-06-25 09:24:08 51°12.56 2°31.29 55.8 14.8 52 24.4
2003-06-25 09:25:08 51°12.69 2°31.63 66 14.8 62 25.2
2003-06-25 09:26:08 51°12.8 2°31.98 74.5 14.8 69 24.9
2003-06-25 09:27:08 51°12.88 2°32.35 75.3 14.8 69 25.3
2003-06-25 09:28:08 51°12.96 2°32.72 74.7 14.7 69 24.7
2003-06-25 09:29:08 51°13.05 2°33.09 75.2 14.7 70 23.1
2003-06-25 09:30:08 51°13.14 2°33.45 74.6 14.6 70 21
2003-06-25 09:31:08 51°13.22 2°33.81 74.5 14.6 69 17.3
2003-06-25 09:32:08 51°13.3 2°34.17 74.2 14.6 70 15
2003-06-25 09:33:08 51°13.39 2°34.54 74.6 14.5 70 16.1
2003-06-25 09:34:08 51°13.47 2°34.9 74.6 14.6 70 17
2003-06-25 09:35:08 51°13.55 2°35.26 74.4 14.6 70 18.1
2003-06-25 09:36:08 51°13.64 2°35.62 74.6 14.6 70 17.7
2003-06-25 09:37:08 51°13.72 2°35.99 73.9 14.7 70 18.7
2003-06-25 09:38:08 51°13.8 2°36.36 74.7 14.6 71 20.6
2003-06-25 09:39:08 51°13.89 2°36.72 74.7 14.7 70 21.2
2003-06-25 09:40:08 51°13.97 2°37.09 74.1 14.9 70 21.3
2003-06-25 09:41:08 51°14.05 2°37.46 74.7 14.8 71 21.7
2003-06-25 09:42:08 51°14.14 2°37.83 75.6 14.8 72 21.2
2003-06-25 09:43:08 51°14.18 2°38.21 92.1 14.4 87 19.8
2003-06-25 09:44:08 51°14.13 2°38.58 114.1 14.1 109 16.9
2003-06-25 09:45:08 51°13.99 2°38.86 155.1 13.3 151 14.3
2003-06-25 09:46:08 51°13.78 2°38.84 210.4 13.3 207 15.9
2003-06-25 09:47:08 51°13.59 2°38.68 211.8 13.3 207 16.3
2003-06-25 09:48:08 51°13.39 2°38.51 211.9 13.6 208 16.1
2003-06-25 09:49:08 51°13.2 2°38.35 212.4 13.4 208 15.9
2003-06-25 09:50:08 51°13 2°38.19 211.9 13.6 208 15.6
2003-06-25 09:51:08 51°12.81 2°38.01 215.7 13.4 212 15
2003-06-25 09:52:08 51°12.63 2°37.83 216.2 13.1 212 14.4
2003-06-25 09:53:08 51°12.44 2°37.64 216.2 13.3 212 14
2003-06-25 09:54:08 51°12.25 2°37.45 217.7 13.2 213 13.6
2003-06-25 09:55:08 51°12.07 2°37.27 216.6 13.4 214 13.6
2003-06-25 09:56:08 51°11.88 2°37.09 217.2 13.1 213 13.4
2003-06-25 09:57:08 51°11.69 2°36.91 216.2 13.6 211 13.5
2003-06-25 09:58:08 51°11.51 2°36.72 215.9 13.1 211 13.5
2003-06-25 09:59:08 51°11.32 2°36.54 216.5 13.2 212 13.6
2003-06-25 10:00:08 51°11.13 2°36.36 216.8 12.9 212 13.5
2003-06-25 10:01:08 51°10.95 2°36.17 214.1 13.1 209 13.2
2003-06-25 10:02:08 51°10.76 2°36 209.3 13 205 12.9
2003-06-25 10:03:08 51°10.55 2°35.89 202.6 12.9 198 12.6
2003-06-25 10:04:08 51°10.34 2°35.79 199.4 13.5 196 12.6
2003-06-25 10:05:08 51°10.13 2°35.72 196.9 13.4 190 14.2
2003-06-25 10:06:08 51°9.91 2°35.66 185.1 12.9 176 19.7
2003-06-25 10:07:08 51°9.72 2°35.82 139.9 13.8 130 19.7
2003-06-25 10:08:08 51°9.65 2°36.17 93 14 85 19
2003-06-25 10:09:08 51°9.72 2°36.53 77 14.3 72 19.2
2003-06-25 10:10:08 51°9.79 2°36.89 77.1 14.3 73 18.5
2003-06-25 10:11:08 51°9.85 2°37.25 80 14.3 73 18.6
2003-06-25 10:12:08 51°9.92 2°37.61 79.6 14.3 75 18.5
2003-06-25 10:13:08 51°9.99 2°37.97 78.7 14.2 74 18.3
2003-06-25 10:14:08 51°10.06 2°38.34 75.8 14.3 71 17.9
2003-06-25 10:15:08 51°10.12 2°38.7 78.1 14.3 74 17
2003-06-25 10:16:08 51°10.19 2°39.06 77.8 14.4 72 16.7
2003-06-25 10:17:08 51°10.26 2°39.43 77.5 14.2 73 16.1
2003-06-25 10:18:08 51°10.32 2°39.79 79.5 14.3 74 15.2
2003-06-25 10:19:08 51°10.39 2°40.16 78.3 14.3 73 14.8
2003-06-25 10:20:08 51°10.45 2°40.52 79 14.2 74 14.4
2003-06-25 10:21:08 51°10.51 2°40.88 78.9 14.2 74 14.2
2003-06-25 10:22:08 51°10.58 2°41.24 79 14.2 75 14.1
2003-06-25 10:23:08 51°10.64 2°41.6 75.8 14.2 71 13.9
2003-06-25 10:24:08 51°10.72 2°41.96 75.8 14.2 71 13.9
2003-06-25 10:25:08 51°10.79 2°42.32 76.2 14.2 72 13.9
2003-06-25 10:26:08 51°10.86 2°42.67 76.1 14.2 73 13.9
2003-06-25 10:27:08 51°10.93 2°43.03 76.5 14.1 72 13.8
2003-06-25 10:28:08 51°11 2°43.38 76.1 14.1 73 13.8
2003-06-25 10:29:08 51°11.07 2°43.74 76.2 14.1 72 13.8
2003-06-25 10:30:08 51°11.14 2°44.09 75.4 14 71 13.8
2003-06-25 10:31:08 51°11.22 2°44.44 74.1 14 70 13.7
2003-06-25 10:32:08 51°11.3 2°44.79 72.6 14.1 69 13.8
2003-06-25 10:33:08 51°11.38 2°45.14 72.5 14 69 13.7
2003-06-25 10:34:08 51°11.47 2°45.48 70.4 14 68 13.7
2003-06-25 10:35:08 51°11.56 2°45.83 70.9 14 67 13.8
2003-06-25 10:36:08 51°11.65 2°46.17 71.3 14 67 13.9
2003-06-25 10:37:08 51°11.74 2°46.51 71.4 14 68 13.9
2003-06-25 10:38:08 51°11.83 2°46.86 71.4 14.1 68 13.6
2003-06-25 10:39:08 51°11.92 2°47.2 66.7 14 63 13.5
2003-06-25 10:40:08 51°12.03 2°47.52 64.9 14 61 13.5
2003-06-25 10:41:08 51°12.15 2°47.85 65.1 14 62 13.6
2003-06-25 10:42:08 51°12.26 2°48.18 65 14 61 13.5
2003-06-25 10:43:08 51°12.37 2°48.5 65.2 13.9 62 13.5
2003-06-25 10:44:08 51°12.48 2°48.83 65.3 14 63 13.2
2003-06-25 10:45:08 51°12.59 2°49.16 63.8 14.1 61 13.2
2003-06-25 10:46:08 51°12.71 2°49.48 64.5 14.1 61 13.1
2003-06-25 10:47:10 51°12.83 2°49.82 64.2 14 60 12.9
2003-06-25 10:48:08 51°12.94 2°50.13 63.3 14.1 60 12.9
2003-06-25 10:49:08 51°13.06 2°50.45 63 14 59 12.8
2003-06-25 10:50:08 51°13.18 2°50.77 63.4 14.1 59 12.8
2003-06-25 10:51:10 51°13.29 2°51.11 65.3 14.1 62 12.5
2003-06-25 10:52:08 51°13.4 2°51.43 65.1 14 60 12.4
2003-06-25 10:53:08 51°13.51 2°51.75 65.2 14 61 12.2
2003-06-25 10:54:08 51°13.62 2°52.08 65 14 61 12.1
2003-06-25 10:55:08 51°13.73 2°52.41 66 14 62 12
2003-06-25 10:56:08 51°13.84 2°52.73 65.4 14 61 11.8
2003-06-25 10:57:08 51°13.96 2°53.05 65.6 14 61 11.4
2003-06-25 10:58:10 51°14.07 2°53.39 65.5 13.9 61 11.1
2003-06-25 10:59:08 51°14.19 2°53.69 59.1 13.9 55 10.8
2003-06-25 11:00:08 51°14.32 2°53.99 59 13.9 56 10.8
2003-06-25 11:01:08 51°14.4 2°54.33 92.9 13.6 90 11
2003-06-25 11:02:10 51°14.4 2°54.69 96.5 12.4 94 11.8
2003-06-25 11:03:08 51°14.36 2°54.97 109.8 10.4 109 10.5